Time;durP1;ratioP1;P1;durP2;ratioP2;P2;SDS_P1;SDS_P2;PMS_P1;PMS_P2;Temp;Humidity;BMP_temperature;BMP_pressure;BME280_temperature;BME280_humidity;BME280_pressure;Samples;Min_cycle;Max_cycle;Signal;HPM_P1;HPM_P2
2023/03/28 00:01:14;;;;;;;9.90;8.80;;;;;;;9.87;70.00;99761.39;106800;1254;63760;-90
2023/03/28 00:03:44;;;;;;;14.50;7.90;;;;;;;9.85;70.11;99757.38;107343;1254;73886;-89
2023/03/28 00:06:17;;;;;;;13.50;7.60;;;;;;;9.83;70.32;99757.54;107321;1254;61096;-91
2023/03/28 00:08:46;;;;;;;13.30;7.60;;;;;;;9.79;70.49;99755.20;107381;1254;61378;-91
2023/03/28 00:11:32;;;;;;;11.40;8.30;;;;;;;9.74;70.77;99755.68;107315;1254;73947;-90
2023/03/28 00:14:01;;;;;;;10.30;7.80;;;;;;;9.68;70.97;99754.88;107194;1253;64867;-92
2023/03/28 00:16:38;;;;;;;12.50;8.60;;;;;;;9.62;71.41;99754.29;107966;1253;74032;-90
2023/03/28 00:19:10;;;;;;;11.50;8.00;;;;;;;9.57;71.64;99753.23;106909;1254;61868;-91
2023/03/28 00:21:40;;;;;;;14.90;9.10;;;;;;;9.53;71.96;99750.36;107441;1253;60330;-90
2023/03/28 00:24:13;;;;;;;10.00;7.00;;;;;;;9.49;72.15;99747.80;107246;1257;74321;-91
2023/03/28 00:26:42;;;;;;;10.50;7.90;;;;;;;9.49;72.46;99751.52;107020;1254;64811;-90
2023/03/28 00:29:19;;;;;;;9.80;6.20;;;;;;;9.46;72.69;99749.08;107386;1253;73634;-94
2023/03/28 00:31:51;;;;;;;8.20;7.00;;;;;;;9.45;72.92;99747.27;109358;1253;61331;-88
2023/03/28 00:34:19;;;;;;;12.10;6.70;;;;;;;9.42;72.93;99739.58;109445;1254;61299;-87
2023/03/28 00:36:49;;;;;;;7.30;6.10;;;;;;;9.39;73.26;99736.14;109353;1253;73003;-92
2023/03/28 00:39:18;;;;;;;8.00;7.30;;;;;;;9.37;73.36;99732.84;107393;1259;64650;-94
2023/03/28 00:41:48;;;;;;;6.90;5.80;;;;;;;9.33;73.57;99731.45;107286;1253;73676;-92
2023/03/28 00:44:47;;;;;;;7.70;6.30;;;;;;;9.30;73.82;99729.58;107136;1259;61972;-93
2023/03/28 00:47:35;;;;;;;8.10;5.60;;;;;;;9.27;74.18;99722.86;107334;1253;60241;-96
2023/03/28 00:50:12;;;;;;;7.20;5.70;;;;;;;9.24;74.54;99718.19;107235;1257;74215;-92
2023/03/28 00:52:43;;;;;;;6.50;5.00;;;;;;;9.24;74.70;99720.58;107490;1253;63753;-93
2023/03/28 00:55:15;;;;;;;7.40;6.30;;;;;;;9.24;74.90;99718.14;107398;1250;72605;-94
2023/03/28 00:57:54;;;;;;;10.70;6.70;;;;;;;9.24;74.88;99714.16;107470;1250;60297;-92
2023/03/28 01:00:23;;;;;;;8.70;6.70;;;;;;;9.22;75.08;99711.66;107676;1252;61071;-91
2023/03/28 01:02:53;;;;;;;12.00;7.80;;;;;;;9.20;75.09;99702.42;107525;1251;73474;-92
2023/03/28 01:05:31;;;;;;;11.50;8.40;;;;;;;9.20;75.11;99705.18;107083;1249;63892;-92
2023/03/28 01:08:11;;;;;;;11.30;9.00;;;;;;;9.20;75.24;99700.47;107712;1254;74495;-90
2023/03/28 01:10:40;;;;;;;11.40;7.60;;;;;;;9.21;75.29;99697.33;107638;1254;61680;-89
2023/03/28 01:13:17;;;;;;;10.70;9.20;;;;;;;9.18;75.49;99695.21;107697;1254;61409;-93
2023/03/28 01:15:52;;;;;;;13.40;7.60;;;;;;;9.14;75.69;99688.34;107685;1252;72701;-95
2023/03/28 01:18:22;;;;;;;13.40;9.20;;;;;;;9.11;75.99;99687.48;107763;1254;63793;-92
2023/03/28 01:21:01;;;;;;;12.40;9.20;;;;;;;9.10;76.29;99689.64;107010;1258;74291;-93
2023/03/28 01:23:48;;;;;;;17.00;9.70;;;;;;;9.10;76.43;99692.62;107102;1254;60347;-92
2023/03/28 01:26:49;;;;;;;22.40;11.10;;;;;;;9.08;76.74;99689.43;106808;1254;60093;-89
2023/03/28 01:29:23;;;;;;;18.10;11.50;;;;;;;9.05;76.88;99682.52;106313;1256;73316;-88
2023/03/28 01:31:58;;;;;;;21.50;11.40;;;;;;;9.00;77.17;99684.23;106261;1254;62619;-88
2023/03/28 01:35:19;;;;;;;22.50;11.10;;;;;;;8.95;77.41;99677.08;106457;1256;72680;-84
2023/03/28 01:38:00;;;;;;;16.50;9.00;;;;;;;8.92;77.72;99676.05;106613;1256;62832;-89
2023/03/28 01:40:47;;;;;;;14.60;8.70;;;;;;;8.89;78.07;99678.37;106612;1253;61587;-91
2023/03/28 01:43:31;;;;;;;11.10;7.20;;;;;;;8.87;78.24;99676.23;106708;1256;74086;-88
2023/03/28 01:46:06;;;;;;;10.00;6.30;;;;;;;8.84;78.43;99675.38;106570;1254;63909;-86
2023/03/28 01:49:07;;;;;;;9.60;6.70;;;;;;;8.84;78.65;99673.65;106412;1256;73668;-88
2023/03/28 01:51:46;;;;;;;10.90;5.60;;;;;;;8.85;78.60;99668.89;106024;1259;61576;-86
2023/03/28 01:54:29;;;;;;;8.80;5.90;;;;;;;8.85;78.55;99662.09;106238;1256;60140;-88
2023/03/28 01:57:24;;;;;;;8.10;5.00;;;;;;;8.85;78.57;99657.74;106314;1256;74200;-90
2023/03/28 02:00:14;;;;;;;10.30;5.60;;;;;;;8.84;78.46;99659.17;106173;1258;64760;-89
2023/03/28 02:03:05;;;;;;;5.70;4.20;;;;;;;8.81;78.49;99651.56;106654;1254;73566;-87
2023/03/28 02:05:38;;;;;;;7.50;3.90;;;;;;;8.81;78.53;99653.80;107973;1254;62471;-87
2023/03/28 02:08:09;;;;;;;7.80;3.10;;;;;;;8.81;78.52;99655.02;106618;1253;60196;-90
2023/03/28 02:10:48;;;;;;;6.70;3.90;;;;;;;8.81;78.61;99652.76;106604;1255;74018;-89
2023/03/28 02:13:59;;;;;;;5.90;3.60;;;;;;;8.82;78.60;99655.48;107213;1252;63872;-90
2023/03/28 02:16:53;;;;;;;4.20;3.40;;;;;;;8.83;78.42;99657.50;106781;1254;73674;-88
2023/03/28 02:19:38;;;;;;;4.00;3.40;;;;;;;8.82;78.42;99652.90;106349;1256;60314;-89
2023/03/28 02:22:23;;;;;;;5.10;4.60;;;;;;;8.80;78.26;99652.10;107142;1254;59977;-84
2023/03/28 02:25:07;;;;;;;5.90;3.60;;;;;;;8.79;78.28;99649.98;107560;1253;72658;-90
2023/03/28 02:28:04;;;;;;;6.50;4.20;;;;;;;8.77;78.30;99651.64;107374;1252;64456;-88
2023/03/28 02:30:52;;;;;;;6.30;4.10;;;;;;;8.75;78.35;99645.50;106843;1256;73648;-90
2023/03/28 02:33:51;;;;;;;12.00;5.80;;;;;;;8.74;78.41;99647.30;106627;1254;62902;-89
2023/03/28 02:36:23;;;;;;;23.70;10.40;;;;;;;8.73;78.40;99637.80;106903;1258;61118;-87
2023/03/28 02:39:13;;;;;;;25.90;11.30;;;;;;;8.72;78.42;99630.37;107964;1260;73976;-90
2023/03/28 02:41:47;;;;;;;24.30;11.60;;;;;;;8.72;78.28;99632.81;105885;1259;64839;-90
2023/03/28 02:44:21;;;;;;;25.30;9.30;;;;;;;8.72;78.29;99629.17;105783;1264;73627;-90
2023/03/28 02:47:33;;;;;;;11.30;6.50;;;;;;;8.73;78.22;99629.64;105736;1260;61579;-91
2023/03/28 02:50:17;;;;;;;4.90;3.30;;;;;;;8.71;77.98;99624.52;105863;1259;60374;-87
2023/03/28 02:53:04;;;;;;;;;;;;;;;8.69;77.94;99620.79;105893;1260;73145;-88
2023/03/28 02:55:37;;;;;;;5.20;3.20;;;;;;;8.68;78.10;99629.44;105959;1260;64827;-85
2023/03/28 02:58:28;;;;;;;5.60;2.70;;;;;;;8.65;78.19;99625.64;105824;1262;73850;-89
2023/03/28 03:00:56;;;;;;;4.20;2.50;;;;;;;8.64;78.11;99616.93;106462;1260;63019;-90
2023/03/28 03:03:26;;;;;;;4.30;2.70;;;;;;;8.64;78.18;99614.34;105704;1260;61129;-88
2023/03/28 03:05:56;;;;;;;4.00;2.70;;;;;;;8.64;78.21;99612.44;105805;1260;73818;-85
2023/03/28 03:08:26;;;;;;;6.20;3.00;;;;;;;8.64;77.98;99609.96;105575;1264;64791;-86
2023/03/28 03:10:56;;;;;;;3.10;2.70;;;;;;;8.64;77.87;99607.36;105628;1259;72406;-87
2023/03/28 03:13:24;;;;;;;4.90;3.10;;;;;;;8.64;77.80;99602.32;105799;1260;61253;-88
2023/03/28 03:15:53;;;;;;;4.00;2.90;;;;;;;8.64;77.75;99591.55;106108;1254;61061;-84
2023/03/28 03:18:25;;;;;;;5.20;2.60;;;;;;;8.63;77.73;99590.55;106024;1257;74641;-88
2023/03/28 03:20:54;;;;;;;4.80;3.30;;;;;;;8.63;77.70;99587.98;106252;1258;65447;-89
2023/03/28 03:23:26;;;;;;;4.10;3.00;;;;;;;8.62;77.60;99580.33;106252;1255;73776;-89
2023/03/28 03:25:56;;;;;;;5.70;3.50;;;;;;;8.64;77.63;99577.58;106308;1252;61914;-90
2023/03/28 03:28:36;;;;;;;5.10;2.90;;;;;;;8.65;77.62;99569.14;106220;1259;60418;-83
2023/03/28 03:31:05;;;;;;;9.20;3.60;;;;;;;8.66;77.64;99566.29;105984;1252;75031;-92
2023/03/28 03:33:46;;;;;;;4.90;2.80;;;;;;;8.69;77.41;99560.00;106410;1254;63466;-87
2023/03/28 03:36:17;;;;;;;5.60;2.20;;;;;;;8.74;77.25;99556.92;106430;1255;73359;-90
2023/03/28 03:38:46;;;;;;;5.50;2.80;;;;;;;8.75;77.28;99557.70;106143;1257;61351;-87
2023/03/28 03:41:19;;;;;;;10.10;4.40;;;;;;;8.72;77.33;99559.45;106216;1257;61410;-91
2023/03/28 03:44:29;;;;;;;3.90;2.90;;;;;;;8.71;77.33;99540.86;103024;1292;612507;-91
2023/03/28 03:46:56;;;;;;;7.50;3.20;;;;;;;8.68;77.27;99540.86;105502;1267;61291;-88
2023/03/28 03:49:25;;;;;;;6.20;2.70;;;;;;;8.70;77.37;99537.98;105612;1260;60293;-88
2023/03/28 03:51:52;;;;;;;5.50;3.10;;;;;;;8.71;77.17;99531.47;105578;1262;73108;-89
2023/03/28 03:54:20;;;;;;;5.30;3.10;;;;;;;8.74;77.10;99549.41;105786;1257;64609;-87
2023/03/28 03:56:48;;;;;;;4.90;2.60;;;;;;;8.75;77.03;99549.87;105447;1255;793399;-87
2023/03/28 03:59:16;;;;;;;3.50;3.10;;;;;;;8.75;77.03;99552.44;105982;1257;60057;-88
2023/03/28 04:01:54;;;;;;;5.50;3.40;;;;;;;8.75;77.01;99555.60;106118;1257;61128;-87
2023/03/28 04:04:46;;;;;;;4.90;3.50;;;;;;;8.76;76.99;99561.09;105924;1257;72232;-86
2023/03/28 04:07:25;;;;;;;3.50;3.10;;;;;;;8.75;77.06;99557.14;105927;1255;63950;-91
2023/03/28 04:09:54;;;;;;;5.30;2.90;;;;;;;8.72;77.31;99552.64;106100;1256;73690;-86
2023/03/28 04:12:24;;;;;;;4.30;3.00;;;;;;;8.70;77.48;99551.02;106184;1258;62829;-87
2023/03/28 04:14:54;;;;;;;4.50;3.20;;;;;;;8.70;77.61;99549.77;106450;1254;61318;-88
2023/03/28 04:17:36;;;;;;;7.20;3.60;;;;;;;8.73;77.67;99541.28;106426;1254;74009;-89
2023/03/28 04:20:10;;;;;;;7.20;3.20;;;;;;;8.74;77.72;99543.63;106326;1254;64763;-87
2023/03/28 04:22:47;;;;;;;4.90;2.90;;;;;;;8.73;77.86;99537.48;106585;1254;73670;-89
2023/03/28 04:25:16;;;;;;;5.70;3.30;;;;;;;8.70;77.98;99524.90;106621;1254;60625;-90
2023/03/28 04:27:47;;;;;;;3.80;3.30;;;;;;;8.70;78.14;99525.11;106415;1254;60205;-86
2023/03/28 04:30:21;;;;;;;4.30;3.30;;;;;;;8.69;78.13;99525.98;106406;1259;74301;-91
2023/03/28 04:33:07;;;;;;;3.40;2.70;;;;;;;8.70;78.15;99536.02;106667;1256;64768;-89
2023/03/28 04:35:38;;;;;;;4.70;2.90;;;;;;;8.75;78.32;99534.69;106897;1254;73478;-88
2023/03/28 04:38:06;;;;;;;3.70;2.50;;;;;;;8.84;78.18;99529.20;107086;1253;63381;-91
2023/03/28 04:40:38;;;;;;;4.70;3.20;;;;;;;8.94;77.89;99526.00;106751;1254;59646;-90
2023/03/28 04:43:19;;;;;;;4.30;2.60;;;;;;;9.03;77.61;99518.55;107706;1253;73388;-85
2023/03/28 04:45:52;;;;;;;6.00;3.80;;;;;;;9.10;77.44;99518.58;106908;1252;63774;-85
2023/03/28 04:48:21;;;;;;;6.90;2.90;;;;;;;9.20;77.30;99519.63;106980;1254;73359;-89
2023/03/28 04:50:49;;;;;;;7.70;2.90;;;;;;;9.33;76.94;99515.92;106396;1258;63033;-86
2023/03/28 04:53:16;;;;;;;5.10;3.80;;;;;;;9.45;76.39;99511.69;106075;1256;60107;-86
2023/03/28 04:56:04;;;;;;;7.80;3.20;;;;;;;9.49;76.02;99503.59;106283;1252;73919;-89
2023/03/28 04:58:35;;;;;;;5.30;3.10;;;;;;;9.52;76.04;99502.64;106389;1254;64529;-88
2023/03/28 05:01:04;;;;;;;6.10;3.00;;;;;;;9.62;76.00;99499.15;106041;1254;73842;-89
2023/03/28 05:03:57;;;;;;;4.70;2.80;;;;;;;9.95;75.77;99496.45;105946;1252;60591;-88
2023/03/28 05:06:25;;;;;;;5.00;4.00;;;;;;;10.49;74.43;99509.66;106239;1255;61352;-88
2023/03/28 05:08:53;;;;;;;6.20;3.20;;;;;;;11.08;71.89;99502.92;105993;1254;74115;-86
2023/03/28 05:11:24;;;;;;;4.00;3.20;;;;;;;11.42;69.59;99502.66;106241;1254;66062;-85
2023/03/28 05:13:51;;;;;;;6.70;3.50;;;;;;;11.43;68.76;99496.30;106533;1254;73679;-87
2023/03/28 05:16:32;;;;;;;8.60;3.70;;;;;;;11.30;68.72;99491.91;107078;1254;61417;-90
2023/03/28 05:19:19;;;;;;;3.70;3.40;;;;;;;11.17;68.75;99492.10;107000;1254;61408;-89
2023/03/28 05:21:55;;;;;;;6.90;3.70;;;;;;;11.07;69.07;99490.11;108465;1252;73005;-89
2023/03/28 05:24:22;;;;;;;7.00;3.80;;;;;;;10.99;69.38;99490.02;107501;1254;63624;-92
2023/03/28 05:26:50;;;;;;;5.20;3.90;;;;;;;10.96;70.08;99481.71;106847;1253;72599;-90
2023/03/28 05:29:23;;;;;;;6.00;4.40;;;;;;;11.06;70.41;99473.61;106846;1259;61145;-91
2023/03/28 05:31:52;;;;;;;8.10;4.60;;;;;;;11.31;70.10;99475.95;106885;1254;61232;-91
2023/03/28 05:34:24;;;;;;;5.30;4.00;;;;;;;11.58;69.39;99466.36;107222;1254;74217;-92
2023/03/28 05:36:51;;;;;;;5.40;3.90;;;;;;;11.79;68.36;99464.95;107608;1251;66668;-91
2023/03/28 05:39:27;;;;;;;4.30;3.50;;;;;;;11.97;67.72;99458.04;107374;1254;74060;-92
2023/03/28 05:42:03;;;;;;;8.40;3.50;;;;;;;12.22;66.29;99455.42;106732;1259;60366;-90
2023/03/28 05:44:34;;;;;;;4.70;3.30;;;;;;;12.53;65.02;99454.66;107355;1254;61537;-88
2023/03/28 05:47:24;;;;;;;5.20;3.10;;;;;;;12.93;64.18;99448.01;108267;1253;73921;-88
2023/03/28 05:49:51;;;;;;;8.10;4.00;;;;;;;13.37;61.80;99451.95;108303;1252;64140;-89
2023/03/28 05:52:22;;;;;;;3.90;3.40;;;;;;;13.84;60.15;99449.86;107874;1256;72665;-88
2023/03/28 05:54:49;;;;;;;6.80;3.20;;;;;;;14.34;58.85;99449.18;106989;1253;59737;-89
2023/03/28 05:57:21;;;;;;;4.50;3.70;;;;;;;14.86;57.17;99454.13;108813;1253;61478;-87
2023/03/28 05:59:48;;;;;;;5.00;3.50;;;;;;;15.37;55.89;99457.75;107806;1256;73136;-87
2023/03/28 06:02:19;;;;;;;5.60;3.70;;;;;;;15.89;53.82;99456.14;107168;1253;62656;-88
2023/03/28 06:04:56;;;;;;;12.00;3.50;;;;;;;16.30;52.56;99455.86;107163;1254;74324;-88
2023/03/28 06:07:25;;;;;;;5.20;3.20;;;;;;;16.75;52.14;99460.38;108442;1254;60376;-88
2023/03/28 06:10:10;;;;;;;4.30;3.10;;;;;;;17.09;49.80;99458.11;107357;1254;59908;-88
2023/03/28 06:12:38;;;;;;;6.60;3.40;;;;;;;16.74;49.28;99470.70;106844;1257;74130;-86
2023/03/28 06:15:06;;;;;;;4.50;2.80;;;;;;;16.17;50.24;99452.08;106841;1256;63794;-87
2023/03/28 06:17:42;;;;;;;10.90;4.20;;;;;;;15.68;51.35;99448.04;109325;1252;73638;-94
2023/03/28 06:20:10;;;;;;;6.10;3.50;;;;;;;15.37;52.14;99446.46;107277;1254;60047;-91
2023/03/28 06:22:38;;;;;;;4.80;3.20;;;;;;;15.05;52.83;99441.89;107408;1253;60680;-93
2023/03/28 06:25:11;;;;;;;4.60;3.20;;;;;;;14.81;53.58;99439.31;107233;1257;73803;-93
2023/03/28 06:27:41;;;;;;;6.50;3.50;;;;;;;14.50;54.55;99437.17;106735;1257;63982;-88
2023/03/28 06:30:08;;;;;;;6.60;4.40;;;;;;;14.13;55.45;99434.80;106941;1257;72552;-90
2023/03/28 06:32:43;;;;;;;6.80;3.30;;;;;;;13.78;56.60;99426.09;107293;1257;60543;-90
2023/03/28 06:35:13;;;;;;;10.70;4.60;;;;;;;13.53;57.45;99412.66;107029;1259;60747;-90
2023/03/28 06:37:45;;;;;;;4.00;3.40;;;;;;;13.36;58.08;99406.45;106896;1259;72809;-91
2023/03/28 06:40:17;;;;;;;4.90;3.80;;;;;;;13.17;58.81;99396.05;106761;1256;63592;-90
2023/03/28 06:42:45;;;;;;;4.10;3.20;;;;;;;13.02;59.14;99397.06;106540;1257;74526;-86
2023/03/28 06:45:21;;;;;;;4.80;3.60;;;;;;;12.82;59.91;99388.52;106617;1261;61302;-90
2023/03/28 06:47:54;;;;;;;7.90;4.10;;;;;;;12.79;60.39;99385.58;106637;1259;60321;-88
2023/03/28 06:50:28;;;;;;;4.30;3.80;;;;;;;12.92;60.30;99388.60;106173;1260;72844;-87
2023/03/28 06:53:09;;;;;;;5.40;3.40;;;;;;;13.04;59.76;99392.32;106456;1257;64719;-87
2023/03/28 06:55:47;;;;;;;4.80;3.80;;;;;;;12.99;60.05;99375.91;108207;1256;73660;-90
2023/03/28 06:58:45;;;;;;;6.90;3.10;;;;;;;12.84;60.38;99379.31;108975;1254;64030;-91
2023/03/28 07:02:29;;;;;;;7.10;3.40;;;;;;;12.59;61.06;99370.68;109497;1253;59203;-87
2023/03/28 07:05:10;;;;;;;5.40;3.30;;;;;;;12.37;61.91;99369.81;108671;1254;72986;-89
2023/03/28 07:07:40;;;;;;;4.90;3.70;;;;;;;12.26;62.54;99373.45;108071;1254;65092;-89
2023/03/28 07:10:56;;;;;;;4.30;3.90;;;;;;;11.97;63.41;99378.20;108728;1254;72445;-91
2023/03/28 07:13:34;;;;;;;6.10;3.60;;;;;;;11.71;64.41;99364.75;108542;1254;60203;-91
2023/03/28 07:16:06;;;;;;;7.30;4.10;;;;;;;11.64;65.04;99367.10;107259;1259;61350;-90
2023/03/28 07:18:34;;;;;;;5.60;3.70;;;;;;;11.60;65.28;99361.36;106617;1263;73065;-91
2023/03/28 07:21:06;;;;;;;5.40;3.70;;;;;;;11.49;65.67;99349.67;106861;1254;64759;-91
2023/03/28 07:23:38;;;;;;;12.70;4.00;;;;;;;11.35;66.12;99336.31;106622;1260;72261;-94
2023/03/28 07:26:15;;;;;;;4.70;3.10;;;;;;;11.28;66.58;99346.52;106177;1263;63276;-86
2023/03/28 07:28:43;;;;;;;7.40;3.40;;;;;;;11.21;66.79;99344.96;106838;1260;60101;-89
2023/03/28 07:31:11;;;;;;;3.20;2.90;;;;;;;11.15;67.10;99332.16;107178;1259;72998;-89
2023/03/28 07:33:41;;;;;;;3.50;3.20;;;;;;;11.15;67.40;99330.30;107264;1259;64700;-88
2023/03/28 07:36:15;;;;;;;7.00;3.20;;;;;;;11.15;67.56;99321.69;106913;1257;74489;-90
2023/03/28 07:38:46;;;;;;;10.20;4.60;;;;;;;11.17;67.63;99321.91;106692;1255;61254;-89
2023/03/28 07:41:16;;;;;;;4.90;3.80;;;;;;;11.19;67.66;99325.41;106316;1258;61759;-89
2023/03/28 07:43:43;;;;;;;8.20;3.60;;;;;;;11.17;67.72;99333.75;107138;1257;73037;-92
2023/03/28 07:46:13;;;;;;;3.80;3.00;;;;;;;11.14;67.78;99323.05;106481;1257;63621;-90
2023/03/28 07:48:40;;;;;;;5.60;3.70;;;;;;;11.11;67.92;99320.63;106671;1256;73719;-88
2023/03/28 07:51:10;;;;;;;4.10;3.50;;;;;;;11.12;68.10;99319.34;106836;1261;60223;-85
2023/03/28 07:53:39;;;;;;;4.60;3.70;;;;;;;11.12;68.08;99319.45;106585;1259;60020;-87
2023/03/28 07:56:13;;;;;;;4.20;3.00;;;;;;;11.15;68.11;99306.63;106602;1257;73080;-86
2023/03/28 07:59:03;;;;;;;3.60;3.20;;;;;;;11.14;67.94;99310.55;106497;1254;64447;-87
2023/03/28 08:01:31;;;;;;;6.40;3.00;;;;;;;11.09;68.21;99304.57;106264;1260;72498;-88
2023/03/28 08:04:03;;;;;;;6.60;2.80;;;;;;;11.04;68.39;99318.75;106196;1255;60543;-88
2023/03/28 08:07:03;;;;;;;6.60;3.50;;;;;;;10.99;68.56;99300.83;106082;1260;60572;-90
2023/03/28 08:09:31;;;;;;;5.00;3.50;;;;;;;10.97;68.65;99311.64;106312;1257;75328;-90
2023/03/28 08:12:18;;;;;;;6.80;3.00;;;;;;;10.94;68.59;99302.42;106236;1260;64703;-89
2023/03/28 08:15:08;;;;;;;9.20;3.80;;;;;;;10.88;68.78;99291.04;106675;1259;75363;-90
2023/03/28 08:17:35;;;;;;;9.30;3.70;;;;;;;10.85;68.96;99290.23;106078;1254;61714;-87
2023/03/28 08:20:07;;;;;;;6.00;2.70;;;;;;;10.83;69.04;99273.63;105973;1254;61316;-88
2023/03/28 08:22:55;;;;;;;6.20;3.10;;;;;;;10.81;69.16;99258.27;106165;1257;75294;-88
2023/03/28 08:25:46;;;;;;;4.20;3.20;;;;;;;10.81;69.39;99270.50;105989;1253;64928;-85
2023/03/28 08:28:17;;;;;;;6.60;3.30;;;;;;;10.80;69.49;99255.86;106362;1257;73656;-89
2023/03/28 08:30:45;;;;;;;5.10;3.20;;;;;;;10.80;69.61;99257.44;106289;1254;61357;-87
2023/03/28 08:33:13;;;;;;;5.30;3.30;;;;;;;10.78;69.82;99253.20;106191;1260;61093;-88
2023/03/28 08:35:43;;;;;;;4.20;3.80;;;;;;;10.76;70.01;99263.00;106519;1255;74776;-89
2023/03/28 08:38:17;;;;;;;4.10;3.50;;;;;;;10.71;70.38;99248.20;106355;1254;64917;-85
2023/03/28 08:41:08;;;;;;;5.00;3.50;;;;;;;10.69;70.63;99254.70;106515;1254;73469;-89
2023/03/28 08:44:17;;;;;;;5.00;4.10;;;;;;;10.72;70.86;99251.13;106266;1260;62109;-89
2023/03/28 08:46:45;;;;;;;4.60;3.80;;;;;;;10.79;71.17;99246.16;106830;1254;60342;-89
2023/03/28 08:49:15;;;;;;;4.20;3.50;;;;;;;10.88;71.16;99249.13;106884;1254;75413;-87
2023/03/28 08:51:51;;;;;;;4.40;3.50;;;;;;;10.95;70.35;99260.05;106764;1254;63626;-85
2023/03/28 08:54:20;;;;;;;4.80;3.30;;;;;;;10.92;70.12;99249.98;107110;1253;73061;-83
2023/03/28 08:56:52;;;;;;;6.50;4.00;;;;;;;10.87;70.26;99238.02;107202;1254;60303;-88
2023/03/28 08:59:25;;;;;;;5.30;3.80;;;;;;;10.85;70.45;99231.71;106951;1260;60382;-83
2023/03/28 09:02:25;;;;;;;3.30;3.00;;;;;;;10.91;70.47;99225.90;105972;1260;75275;-87
2023/03/28 09:04:53;;;;;;;6.00;3.40;;;;;;;10.95;70.34;99219.30;106472;1259;64648;-89
2023/03/28 09:07:33;;;;;;;6.90;4.10;;;;;;;10.97;70.40;99219.15;106502;1255;74104;-86
2023/03/28 09:10:16;;;;;;;10.10;3.40;;;;;;;11.02;70.49;99210.48;106904;1255;60471;-85
2023/03/28 09:13:49;;;;;;;5.70;3.40;;;;;;;11.09;70.43;99202.55;107202;1254;61119;-89
2023/03/28 09:16:35;;;;;;;5.70;3.90;;;;;;;11.14;70.53;99200.43;107014;1254;73573;-89
2023/03/28 09:19:20;;;;;;;5.70;3.40;;;;;;;11.18;70.61;99192.52;107091;1257;63531;-89
2023/03/28 09:22:34;;;;;;;4.10;3.50;;;;;;;11.16;70.58;99187.95;106828;1254;71484;-88
2023/03/28 09:25:37;;;;;;;5.50;3.90;;;;;;;11.08;71.30;99185.32;109377;1254;61800;-89
2023/03/28 09:28:30;;;;;;;5.10;3.30;;;;;;;11.03;71.75;99182.81;109395;1254;60334;-86
2023/03/28 09:31:00;;;;;;;4.50;3.60;;;;;;;10.94;72.04;99172.66;109320;1254;75148;-86
2023/03/28 09:33:36;;;;;;;4.20;3.30;;;;;;;10.88;72.60;99186.48;109460;1254;64224;-86
2023/03/28 09:36:12;;;;;;;4.60;3.70;;;;;;;10.86;72.90;99186.00;109456;1254;72647;-86
2023/03/28 09:38:45;;;;;;;9.60;3.70;;;;;;;10.85;73.30;99185.56;109443;1254;60360;-83
2023/03/28 09:41:18;;;;;;;8.10;4.20;;;;;;;10.81;73.85;99186.73;109385;1254;61515;-85
2023/03/28 09:43:52;;;;;;;7.00;4.10;;;;;;;10.74;74.32;99179.42;109583;1254;73239;-88
2023/03/28 09:46:57;;;;;;;5.00;4.00;;;;;;;10.68;74.84;99180.84;109560;1254;63699;-85
2023/03/28 09:49:39;;;;;;;5.00;4.00;;;;;;;10.63;75.10;99167.10;109524;1254;74033;-88
2023/03/28 09:53:44;;;;;;;4.20;3.70;;;;;;;10.66;75.48;99170.70;105498;1292;599827;-87
2023/03/28 09:56:33;;;;;;;4.90;4.40;;;;;;;10.68;75.46;99178.59;107365;1260;60314;-87
2023/03/28 09:59:23;;;;;;;4.60;4.00;;;;;;;10.79;75.50;99178.84;106864;1259;59360;-88
2023/03/28 10:01:56;;;;;;;6.20;5.60;;;;;;;10.93;74.67;99184.86;106869;1267;72232;-88
2023/03/28 10:04:28;;;;;;;8.10;5.30;;;;;;;10.97;74.40;99162.45;107155;1260;62515;-89
2023/03/28 10:07:41;;;;;;;6.40;5.20;;;;;;;11.02;74.32;99161.20;106750;1260;844535;-86
2023/03/28 10:10:27;;;;;;;7.20;4.40;;;;;;;11.08;74.20;99150.00;106819;1254;61177;-88
2023/03/28 10:13:14;;;;;;;6.00;4.30;;;;;;;11.17;74.08;99150.63;106086;1255;61023;-90
2023/03/28 10:15:48;;;;;;;5.60;4.30;;;;;;;11.24;73.74;99153.91;106156;1256;72210;-88
2023/03/28 10:18:45;;;;;;;7.30;4.60;;;;;;;11.24;73.46;99146.06;106899;1254;63920;-89
2023/03/28 10:21:23;;;;;;;6.20;5.20;;;;;;;11.23;73.37;99146.64;106592;1250;72647;-85
2023/03/28 10:24:02;;;;;;;5.50;4.80;;;;;;;11.19;73.49;99145.19;106394;1251;60349;-87
2023/03/28 10:26:31;;;;;;;5.10;4.60;;;;;;;11.12;73.53;99146.88;106291;1256;60400;-85
2023/03/28 10:29:04;;;;;;;6.30;5.00;;;;;;;11.04;73.91;99140.21;106109;1256;73994;-88
2023/03/28 10:31:33;;;;;;;5.30;4.80;;;;;;;10.99;74.13;99128.74;106427;1251;64595;-86
2023/03/28 10:34:33;;;;;;;5.10;4.30;;;;;;;10.95;74.49;99125.95;106246;1251;73335;-86
2023/03/28 10:40:17;;;;;;;5.70;4.90;;;;;;;10.93;74.88;99130.11;102964;1295;601786;-83
2023/03/28 10:43:21;;;;;;;4.20;3.80;;;;;;;10.89;74.94;99115.94;105148;1270;60081;-87
2023/03/28 10:46:22;;;;;;;5.80;4.80;;;;;;;10.86;75.11;99106.77;105576;1260;60066;-89
2023/03/28 10:49:28;;;;;;;4.40;3.60;;;;;;;10.78;75.48;99092.04;105573;1257;74350;-86
2023/03/28 10:52:36;;;;;;;4.90;3.80;;;;;;;10.78;75.75;99087.68;106743;1257;65962;-86
2023/03/28 10:55:17;;;;;;;5.90;4.00;;;;;;;10.78;76.17;99068.48;106802;1254;73210;-84
2023/03/28 10:58:52;;;;;;;4.70;3.40;;;;;;;10.89;76.26;99079.93;106107;1257;63178;-85
2023/03/28 11:01:47;;;;;;;5.20;3.70;;;;;;;10.99;76.52;99082.92;106210;1253;60003;-83
2023/03/28 11:04:37;;;;;;;4.30;3.50;;;;;;;11.12;76.66;99075.18;105985;1254;71872;-86
2023/03/28 11:07:48;;;;;;;4.70;3.10;;;;;;;11.33;76.34;99066.64;107959;1254;63813;-87
2023/03/28 11:10:26;;;;;;;4.20;3.40;;;;;;;11.63;76.05;99064.20;107498;1253;72639;-94
2023/03/28 11:13:41;;;;;;;3.50;3.20;;;;;;;11.79;75.33;99062.21;107536;1259;61046;-94
2023/03/28 11:20:32;;;;;;;4.80;4.10;;;;;;;11.85;74.49;99064.19;106845;1254;74027;-88
2023/03/28 11:23:34;;;;;;;6.90;4.70;;;;;;;11.81;74.97;99053.52;106851;1256;64329;-89
2023/03/28 11:27:48;;;;;;;2.40;2.10;;;;;;;11.84;74.73;99055.83;104941;1277;614033;-92
2023/03/28 11:30:36;;;;;;;4.80;3.60;;;;;;;11.72;74.68;99053.94;106427;1262;61434;-87
2023/03/28 11:33:48;;;;;;;4.20;3.80;;;;;;;11.63;75.02;99059.09;106649;1260;60559;-89
2023/03/28 11:36:29;;;;;;;4.20;3.80;;;;;;;11.58;75.35;99053.94;106947;1254;73963;-91
2023/03/28 11:39:41;;;;;;;6.90;4.70;;;;;;;11.50;75.61;99053.10;107892;1254;63997;-89
2023/03/28 11:42:42;;;;;;;7.50;5.10;;;;;;;11.36;75.97;99052.42;106884;1255;71783;-87
2023/03/28 11:45:10;;;;;;;9.60;4.90;;;;;;;11.27;76.23;99058.61;107020;1255;61938;-87
2023/03/28 11:47:40;;;;;;;6.40;4.40;;;;;;;11.19;76.37;99051.67;106358;1255;60098;-87
2023/03/28 11:50:17;;;;;;;4.60;3.40;;;;;;;11.16;76.45;99054.19;106732;1251;72645;-90
2023/03/28 11:53:21;;;;;;;5.30;3.10;;;;;;;11.14;75.69;99046.48;107565;1255;65557;-90
2023/03/28 11:56:32;;;;;;;7.40;4.00;;;;;;;11.10;74.87;99051.89;107226;1251;73850;-87
2023/03/28 11:59:29;;;;;;;8.50;4.70;;;;;;;11.04;74.66;99058.34;106991;1252;60718;-89
2023/03/28 12:02:03;;;;;;;10.70;4.60;;;;;;;10.98;74.76;99058.16;106957;1258;60766;-86
2023/03/28 12:04:46;;;;;;;4.50;3.80;;;;;;;10.95;75.12;99055.30;107791;1251;72916;-88
2023/03/28 12:07:37;;;;;;;5.30;3.40;;;;;;;10.91;75.53;99053.50;107729;1251;62949;-89
2023/03/28 12:10:27;;;;;;;7.30;3.60;;;;;;;10.86;76.04;99052.04;107467;1256;73622;-88
2023/03/28 12:13:21;;;;;;;5.50;3.90;;;;;;;10.85;76.47;99058.46;107048;1251;63047;-87
2023/03/28 12:16:01;;;;;;;5.90;4.60;;;;;;;10.82;76.80;99052.92;106465;1260;60374;-88
2023/03/28 12:18:35;;;;;;;10.80;5.80;;;;;;;10.79;76.92;99053.64;106623;1252;74426;-87
2023/03/28 12:21:13;;;;;;;6.10;5.20;;;;;;;10.78;77.17;99057.42;106933;1257;64688;-86
2023/03/28 12:24:14;;;;;;;8.40;5.30;;;;;;;10.77;77.65;99061.86;108177;1251;72681;-90
2023/03/28 12:27:08;;;;;;;6.00;4.60;;;;;;;10.73;78.02;99053.48;107205;1251;61747;-91
2023/03/28 12:29:50;;;;;;;5.50;4.70;;;;;;;10.71;78.30;99053.47;106995;1255;60487;-89
2023/03/28 12:32:41;;;;;;;9.80;4.50;;;;;;;10.72;78.40;99057.95;107483;1255;73902;-88
2023/03/28 12:35:31;;;;;;;7.30;4.80;;;;;;;10.75;78.38;99073.47;106975;1251;63536;-84